sensor_id;sensor_type;location;lat;lon;timestamp;temperature;humidity
74178;DHT22;62540;48.456;-4.456;2023-05-07T00:02:13;16.45;74.66
74178;DHT22;62540;48.456;-4.456;2023-05-07T00:04:39;16.38;74.70
74178;DHT22;62540;48.456;-4.456;2023-05-07T00:07:04;16.42;74.78
74178;DHT22;62540;48.456;-4.456;2023-05-07T00:09:30;16.40;74.76
74178;DHT22;62540;48.456;-4.456;2023-05-07T00:11:56;16.36;74.78
74178;DHT22;62540;48.456;-4.456;2023-05-07T00:14:21;16.35;74.92
74178;DHT22;62540;48.456;-4.456;2023-05-07T00:16:46;16.33;74.98
74178;DHT22;62540;48.456;-4.456;2023-05-07T00:19:12;16.35;74.95
74178;DHT22;62540;48.456;-4.456;2023-05-07T00:21:37;16.35;74.79
74178;DHT22;62540;48.456;-4.456;2023-05-07T00:24:03;16.32;74.85
74178;DHT22;62540;48.456;-4.456;2023-05-07T00:26:28;16.33;74.93
74178;DHT22;62540;48.456;-4.456;2023-05-07T00:28:54;16.36;74.72
74178;DHT22;62540;48.456;-4.456;2023-05-07T00:31:19;16.38;74.54
74178;DHT22;62540;48.456;-4.456;2023-05-07T00:33:45;16.35;74.50
74178;DHT22;62540;48.456;-4.456;2023-05-07T00:36:10;16.36;74.53
74178;DHT22;62540;48.456;-4.456;2023-05-07T00:38:35;16.38;74.43
74178;DHT22;62540;48.456;-4.456;2023-05-07T00:41:01;16.32;74.33
74178;DHT22;62540;48.456;-4.456;2023-05-07T00:43:27;16.32;74.48
74178;DHT22;62540;48.456;-4.456;2023-05-07T00:45:53;16.29;74.54
74178;DHT22;62540;48.456;-4.456;2023-05-07T00:48:18;16.26;74.89
74178;DHT22;62540;48.456;-4.456;2023-05-07T00:50:44;16.24;74.55
74178;DHT22;62540;48.456;-4.456;2023-05-07T00:53:11;16.17;74.55
74178;DHT22;62540;48.456;-4.456;2023-05-07T00:55:38;16.12;74.82
74178;DHT22;62540;48.456;-4.456;2023-05-07T00:58:04;16.10;75.08
74178;DHT22;62540;48.456;-4.456;2023-05-07T01:00:29;16.10;75.18
74178;DHT22;62540;48.456;-4.456;2023-05-07T01:02:55;16.12;75.31
74178;DHT22;62540;48.456;-4.456;2023-05-07T01:05:23;16.14;75.36
74178;DHT22;62540;48.456;-4.456;2023-05-07T01:07:49;16.17;75.27
74178;DHT22;62540;48.456;-4.456;2023-05-07T01:10:15;16.22;75.27
74178;DHT22;62540;48.456;-4.456;2023-05-07T01:12:42;16.24;75.22
74178;DHT22;62540;48.456;-4.456;2023-05-07T01:15:09;16.24;75.08
74178;DHT22;62540;48.456;-4.456;2023-05-07T01:17:41;16.25;75.02
74178;DHT22;62540;48.456;-4.456;2023-05-07T01:20:08;16.26;75.07
74178;DHT22;62540;48.456;-4.456;2023-05-07T01:22:36;16.24;75.16
74178;DHT22;62540;48.456;-4.456;2023-05-07T01:25:03;16.25;75.10
74178;DHT22;62540;48.456;-4.456;2023-05-07T01:27:29;16.26;75.07
74178;DHT22;62540;48.456;-4.456;2023-05-07T01:29:54;16.29;75.01
74178;DHT22;62540;48.456;-4.456;2023-05-07T01:32:28;16.29;75.01
74178;DHT22;62540;48.456;-4.456;2023-05-07T01:34:55;16.28;74.83
74178;DHT22;62540;48.456;-4.456;2023-05-07T01:37:23;16.25;74.75
74178;DHT22;62540;48.456;-4.456;2023-05-07T01:39:49;16.20;74.97
74178;DHT22;62540;48.456;-4.456;2023-05-07T01:42:15;16.22;75.02
74178;DHT22;62540;48.456;-4.456;2023-05-07T01:44:40;16.22;75.03
74178;DHT22;62540;48.456;-4.456;2023-05-07T01:47:06;16.26;74.97
74178;DHT22;62540;48.456;-4.456;2023-05-07T01:49:32;16.31;74.93
74178;DHT22;62540;48.456;-4.456;2023-05-07T01:51:58;16.33;74.87
74178;DHT22;62540;48.456;-4.456;2023-05-07T01:54:27;16.25;75.05
74178;DHT22;62540;48.456;-4.456;2023-05-07T01:56:53;16.25;75.29
74178;DHT22;62540;48.456;-4.456;2023-05-07T01:59:18;16.21;75.35
74178;DHT22;62540;48.456;-4.456;2023-05-07T02:01:44;16.24;75.07
74178;DHT22;62540;48.456;-4.456;2023-05-07T02:04:09;16.20;75.05
74178;DHT22;62540;48.456;-4.456;2023-05-07T02:06:35;16.18;75.11
74178;DHT22;62540;48.456;-4.456;2023-05-07T02:09:01;16.20;75.19
74178;DHT22;62540;48.456;-4.456;2023-05-07T02:11:26;16.18;75.15
74178;DHT22;62540;48.456;-4.456;2023-05-07T02:13:52;16.21;75.11
74178;DHT22;62540;48.456;-4.456;2023-05-07T02:16:18;16.22;75.03
74178;DHT22;62540;48.456;-4.456;2023-05-07T02:18:44;16.24;74.97
74178;DHT22;62540;48.456;-4.456;2023-05-07T02:21:09;16.26;74.85
74178;DHT22;62540;48.456;-4.456;2023-05-07T02:23:35;16.29;74.77
74178;DHT22;62540;48.456;-4.456;2023-05-07T02:26:00;16.32;74.72
74178;DHT22;62540;48.456;-4.456;2023-05-07T02:28:26;16.32;74.81
74178;DHT22;62540;48.456;-4.456;2023-05-07T02:30:52;16.33;74.72
74178;DHT22;62540;48.456;-4.456;2023-05-07T02:33:17;16.33;74.74
74178;DHT22;62540;48.456;-4.456;2023-05-07T02:35:43;16.36;74.74
74178;DHT22;62540;48.456;-4.456;2023-05-07T02:38:08;16.36;74.75
74178;DHT22;62540;48.456;-4.456;2023-05-07T02:40:36;16.42;74.64
74178;DHT22;62540;48.456;-4.456;2023-05-07T02:43:04;16.48;74.32
74178;DHT22;62540;48.456;-4.456;2023-05-07T02:45:31;16.45;74.19
74178;DHT22;62540;48.456;-4.456;2023-05-07T02:47:56;16.45;74.03
74178;DHT22;62540;48.456;-4.456;2023-05-07T02:50:22;16.42;74.11
74178;DHT22;62540;48.456;-4.456;2023-05-07T02:52:47;16.38;74.31
74178;DHT22;62540;48.456;-4.456;2023-05-07T02:55:13;16.35;74.38
74178;DHT22;62540;48.456;-4.456;2023-05-07T02:57:39;16.38;74.42
74178;DHT22;62540;48.456;-4.456;2023-05-07T03:00:12;16.40;74.31
74178;DHT22;62540;48.456;-4.456;2023-05-07T03:02:38;16.41;74.27
74178;DHT22;62540;48.456;-4.456;2023-05-07T03:05:04;16.44;74.26
74178;DHT22;62540;48.456;-4.456;2023-05-07T03:07:30;16.44;74.27
74178;DHT22;62540;48.456;-4.456;2023-05-07T03:09:55;16.44;74.35
74178;DHT22;62540;48.456;-4.456;2023-05-07T03:12:20;16.44;74.33
74178;DHT22;62540;48.456;-4.456;2023-05-07T03:14:46;16.45;74.27
74178;DHT22;62540;48.456;-4.456;2023-05-07T03:17:11;16.45;74.23
74178;DHT22;62540;48.456;-4.456;2023-05-07T03:19:36;16.40;74.36
74178;DHT22;62540;48.456;-4.456;2023-05-07T03:22:02;16.38;74.41
74178;DHT22;62540;48.456;-4.456;2023-05-07T03:24:27;16.33;74.45
74178;DHT22;62540;48.456;-4.456;2023-05-07T03:26:53;16.28;74.58
74178;DHT22;62540;48.456;-4.456;2023-05-07T03:29:18;16.29;74.63
74178;DHT22;62540;48.456;-4.456;2023-05-07T03:31:43;16.31;74.58
74178;DHT22;62540;48.456;-4.456;2023-05-07T03:34:09;16.35;74.23
74178;DHT22;62540;48.456;-4.456;2023-05-07T03:36:34;16.33;73.99
74178;DHT22;62540;48.456;-4.456;2023-05-07T03:38:59;16.29;74.03
74178;DHT22;62540;48.456;-4.456;2023-05-07T03:41:25;16.31;74.13
74178;DHT22;62540;48.456;-4.456;2023-05-07T03:43:51;16.29;74.08
74178;DHT22;62540;48.456;-4.456;2023-05-07T03:46:16;16.25;74.17
74178;DHT22;62540;48.456;-4.456;2023-05-07T03:48:42;16.21;74.28
74178;DHT22;62540;48.456;-4.456;2023-05-07T03:51:07;16.24;74.26
74178;DHT22;62540;48.456;-4.456;2023-05-07T03:53:32;16.21;74.31
74178;DHT22;62540;48.456;-4.456;2023-05-07T03:55:58;16.20;74.42
74178;DHT22;62540;48.456;-4.456;2023-05-07T03:58:23;16.21;74.52
74178;DHT22;62540;48.456;-4.456;2023-05-07T04:00:48;16.20;74.33
74178;DHT22;62540;48.456;-4.456;2023-05-07T04:03:15;16.15;74.51
74178;DHT22;62540;48.456;-4.456;2023-05-07T04:05:40;16.11;74.59
74178;DHT22;62540;48.456;-4.456;2023-05-07T04:08:06;16.08;74.62
74178;DHT22;62540;48.456;-4.456;2023-05-07T04:10:31;16.07;74.36
74178;DHT22;62540;48.456;-4.456;2023-05-07T04:12:57;16.03;74.57
74178;DHT22;62540;48.456;-4.456;2023-05-07T04:15:23;16.01;74.58
74178;DHT22;62540;48.456;-4.456;2023-05-07T04:17:48;16.00;74.61
74178;DHT22;62540;48.456;-4.456;2023-05-07T04:20:16;16.00;74.58
74178;DHT22;62540;48.456;-4.456;2023-05-07T04:22:42;16.00;74.56
74178;DHT22;62540;48.456;-4.456;2023-05-07T04:25:08;16.00;74.59
74178;DHT22;62540;48.456;-4.456;2023-05-07T04:27:36;16.00;74.73
74178;DHT22;62540;48.456;-4.456;2023-05-07T04:30:03;15.96;74.71
74178;DHT22;62540;48.456;-4.456;2023-05-07T04:32:29;16.00;74.68
74178;DHT22;62540;48.456;-4.456;2023-05-07T04:34:58;16.01;74.59
74178;DHT22;62540;48.456;-4.456;2023-05-07T04:37:24;16.05;74.61
74178;DHT22;62540;48.456;-4.456;2023-05-07T04:39:50;16.07;74.60
74178;DHT22;62540;48.456;-4.456;2023-05-07T04:42:17;16.07;74.63
74178;DHT22;62540;48.456;-4.456;2023-05-07T04:44:45;16.08;74.73
74178;DHT22;62540;48.456;-4.456;2023-05-07T04:47:11;16.10;74.60
74178;DHT22;62540;48.456;-4.456;2023-05-07T04:49:38;16.12;74.70
74178;DHT22;62540;48.456;-4.456;2023-05-07T04:52:04;16.11;74.65
74178;DHT22;62540;48.456;-4.456;2023-05-07T04:54:29;16.10;74.70
74178;DHT22;62540;48.456;-4.456;2023-05-07T04:56:55;16.10;74.74
74178;DHT22;62540;48.456;-4.456;2023-05-07T04:59:20;16.10;74.86
74178;DHT22;62540;48.456;-4.456;2023-05-07T05:01:46;16.10;74.91
74178;DHT22;62540;48.456;-4.456;2023-05-07T05:04:11;16.10;74.78
74178;DHT22;62540;48.456;-4.456;2023-05-07T05:06:38;16.08;74.67
74178;DHT22;62540;48.456;-4.456;2023-05-07T05:09:03;16.03;74.39
74178;DHT22;62540;48.456;-4.456;2023-05-07T05:11:30;15.97;74.66
74178;DHT22;62540;48.456;-4.456;2023-05-07T05:13:55;15.96;74.79
74178;DHT22;62540;48.456;-4.456;2023-05-07T05:16:21;15.97;74.74
74178;DHT22;62540;48.456;-4.456;2023-05-07T05:18:46;15.97;74.74
74178;DHT22;62540;48.456;-4.456;2023-05-07T05:21:12;15.98;74.76
74178;DHT22;62540;48.456;-4.456;2023-05-07T05:23:37;16.00;74.73
74178;DHT22;62540;48.456;-4.456;2023-05-07T05:26:03;15.93;74.62
74178;DHT22;62540;48.456;-4.456;2023-05-07T05:28:28;15.91;74.63
74178;DHT22;62540;48.456;-4.456;2023-05-07T05:30:54;15.93;74.58
74178;DHT22;62540;48.456;-4.456;2023-05-07T05:33:19;15.91;74.62
74178;DHT22;62540;48.456;-4.456;2023-05-07T05:35:44;15.94;74.34
74178;DHT22;62540;48.456;-4.456;2023-05-07T05:38:10;15.94;74.24
74178;DHT22;62540;48.456;-4.456;2023-05-07T05:40:35;15.96;74.12
74178;DHT22;62540;48.456;-4.456;2023-05-07T05:43:01;15.98;73.95
74178;DHT22;62540;48.456;-4.456;2023-05-07T05:45:26;16.01;73.82
74178;DHT22;62540;48.456;-4.456;2023-05-07T05:47:51;15.98;73.43
74178;DHT22;62540;48.456;-4.456;2023-05-07T05:50:17;15.98;73.49
74178;DHT22;62540;48.456;-4.456;2023-05-07T05:52:42;15.90;73.39
74178;DHT22;62540;48.456;-4.456;2023-05-07T05:55:08;15.83;73.73
74178;DHT22;62540;48.456;-4.456;2023-05-07T05:57:34;15.80;73.96
74178;DHT22;62540;48.456;-4.456;2023-05-07T06:00:00;15.83;74.18
74178;DHT22;62540;48.456;-4.456;2023-05-07T06:02:25;15.83;74.28
74178;DHT22;62540;48.456;-4.456;2023-05-07T06:04:51;15.86;74.22
74178;DHT22;62540;48.456;-4.456;2023-05-07T06:07:16;15.89;74.35
74178;DHT22;62540;48.456;-4.456;2023-05-07T06:09:42;15.96;74.29
74178;DHT22;62540;48.456;-4.456;2023-05-07T06:12:07;16.00;74.00
74178;DHT22;62540;48.456;-4.456;2023-05-07T06:14:32;15.98;74.05
74178;DHT22;62540;48.456;-4.456;2023-05-07T06:16:58;16.01;74.04
74178;DHT22;62540;48.456;-4.456;2023-05-07T06:19:23;16.01;73.84
74178;DHT22;62540;48.456;-4.456;2023-05-07T06:21:49;15.97;73.72
74178;DHT22;62540;48.456;-4.456;2023-05-07T06:24:15;15.94;73.75
74178;DHT22;62540;48.456;-4.456;2023-05-07T06:26:40;15.93;73.03
74178;DHT22;62540;48.456;-4.456;2023-05-07T06:29:06;15.89;72.63
74178;DHT22;62540;48.456;-4.456;2023-05-07T06:31:31;15.84;72.68
74178;DHT22;62540;48.456;-4.456;2023-05-07T06:33:57;15.89;72.95
74178;DHT22;62540;48.456;-4.456;2023-05-07T06:36:23;15.83;72.51
74178;DHT22;62540;48.456;-4.456;2023-05-07T06:38:48;15.82;72.78
74178;DHT22;62540;48.456;-4.456;2023-05-07T06:41:13;15.86;72.82
74178;DHT22;62540;48.456;-4.456;2023-05-07T06:43:39;15.89;73.06
74178;DHT22;62540;48.456;-4.456;2023-05-07T06:46:04;15.91;72.30
74178;DHT22;62540;48.456;-4.456;2023-05-07T06:48:30;15.94;72.73
74178;DHT22;62540;48.456;-4.456;2023-05-07T06:50:55;15.96;72.71
74178;DHT22;62540;48.456;-4.456;2023-05-07T06:53:23;16.04;72.71
74178;DHT22;62540;48.456;-4.456;2023-05-07T06:55:48;16.11;72.61
74178;DHT22;62540;48.456;-4.456;2023-05-07T06:58:14;16.15;72.70
74178;DHT22;62540;48.456;-4.456;2023-05-07T07:00:39;16.18;72.03
74178;DHT22;62540;48.456;-4.456;2023-05-07T07:03:06;16.20;72.28
74178;DHT22;62540;48.456;-4.456;2023-05-07T07:05:31;16.26;72.06
74178;DHT22;62540;48.456;-4.456;2023-05-07T07:07:57;16.28;71.90
74178;DHT22;62540;48.456;-4.456;2023-05-07T07:10:22;16.29;72.16
74178;DHT22;62540;48.456;-4.456;2023-05-07T07:12:48;16.33;72.18
74178;DHT22;62540;48.456;-4.456;2023-05-07T07:15:14;16.40;71.60
74178;DHT22;62540;48.456;-4.456;2023-05-07T07:17:40;16.38;71.52
74178;DHT22;62540;48.456;-4.456;2023-05-07T07:20:06;16.42;70.98
74178;DHT22;62540;48.456;-4.456;2023-05-07T07:22:31;16.41;71.20
74178;DHT22;62540;48.456;-4.456;2023-05-07T07:24:57;16.40;71.00
74178;DHT22;62540;48.456;-4.456;2023-05-07T07:27:22;16.41;71.45
74178;DHT22;62540;48.456;-4.456;2023-05-07T07:29:48;16.47;71.71
74178;DHT22;62540;48.456;-4.456;2023-05-07T07:32:13;16.51;71.56
74178;DHT22;62540;48.456;-4.456;2023-05-07T07:34:39;16.55;71.37
74178;DHT22;62540;48.456;-4.456;2023-05-07T07:37:04;16.56;70.88
74178;DHT22;62540;48.456;-4.456;2023-05-07T07:39:31;16.56;71.02
74178;DHT22;62540;48.456;-4.456;2023-05-07T07:41:56;16.59;71.12
74178;DHT22;62540;48.456;-4.456;2023-05-07T07:44:21;16.56;71.32
74178;DHT22;62540;48.456;-4.456;2023-05-07T07:46:47;16.58;71.81
74178;DHT22;62540;48.456;-4.456;2023-05-07T07:49:12;16.58;71.53
74178;DHT22;62540;48.456;-4.456;2023-05-07T07:51:38;16.65;71.78
74178;DHT22;62540;48.456;-4.456;2023-05-07T07:54:03;16.72;71.72
74178;DHT22;62540;48.456;-4.456;2023-05-07T07:56:29;16.79;71.66
74178;DHT22;62540;48.456;-4.456;2023-05-07T07:58:54;16.86;71.62
74178;DHT22;62540;48.456;-4.456;2023-05-07T08:01:20;16.91;70.68
74178;DHT22;62540;48.456;-4.456;2023-05-07T08:03:45;16.89;70.22
74178;DHT22;62540;48.456;-4.456;2023-05-07T08:06:10;16.91;70.19
74178;DHT22;62540;48.456;-4.456;2023-05-07T08:08:36;16.99;69.88
74178;DHT22;62540;48.456;-4.456;2023-05-07T08:11:01;17.20;70.39
74178;DHT22;62540;48.456;-4.456;2023-05-07T08:13:27;17.40;69.86
74178;DHT22;62540;48.456;-4.456;2023-05-07T08:15:52;17.62;69.22
74178;DHT22;62540;48.456;-4.456;2023-05-07T08:18:17;17.83;68.71
74178;DHT22;62540;48.456;-4.456;2023-05-07T08:20:43;18.00;69.29
74178;DHT22;62540;48.456;-4.456;2023-05-07T08:23:08;18.12;69.57
74178;DHT22;62540;48.456;-4.456;2023-05-07T08:25:34;18.27;68.58
74178;DHT22;62540;48.456;-4.456;2023-05-07T08:28:00;18.41;68.24
74178;DHT22;62540;48.456;-4.456;2023-05-07T08:30:25;18.53;68.12
74178;DHT22;62540;48.456;-4.456;2023-05-07T08:32:51;18.67;67.82
74178;DHT22;62540;48.456;-4.456;2023-05-07T08:35:16;18.89;67.56
74178;DHT22;62540;48.456;-4.456;2023-05-07T08:37:42;19.08;67.44
74178;DHT22;62540;48.456;-4.456;2023-05-07T08:40:07;19.26;66.94
74178;DHT22;62540;48.456;-4.456;2023-05-07T08:42:35;19.37;66.28
74178;DHT22;62540;48.456;-4.456;2023-05-07T08:45:02;19.50;65.35
74178;DHT22;62540;48.456;-4.456;2023-05-07T08:47:39;19.62;65.49
74178;DHT22;62540;48.456;-4.456;2023-05-07T08:50:06;19.66;65.19
74178;DHT22;62540;48.456;-4.456;2023-05-07T08:52:31;19.71;64.85
74178;DHT22;62540;48.456;-4.456;2023-05-07T08:54:57;19.73;64.66
74178;DHT22;62540;48.456;-4.456;2023-05-07T08:57:24;19.64;64.47
74178;DHT22;62540;48.456;-4.456;2023-05-07T08:59:49;19.57;64.79
74178;DHT22;62540;48.456;-4.456;2023-05-07T09:02:15;19.50;63.65
74178;DHT22;62540;48.456;-4.456;2023-05-07T09:04:41;19.50;64.66
74178;DHT22;62540;48.456;-4.456;2023-05-07T09:07:07;19.49;62.70
74178;DHT22;62540;48.456;-4.456;2023-05-07T09:09:33;19.43;63.20
74178;DHT22;62540;48.456;-4.456;2023-05-07T09:11:59;19.42;62.95
74178;DHT22;62540;48.456;-4.456;2023-05-07T09:14:25;19.32;61.38
74178;DHT22;62540;48.456;-4.456;2023-05-07T09:16:52;19.25;63.25
74178;DHT22;62540;48.456;-4.456;2023-05-07T09:19:22;19.23;62.88
74178;DHT22;62540;48.456;-4.456;2023-05-07T09:21:48;19.22;62.44
74178;DHT22;62540;48.456;-4.456;2023-05-07T09:24:15;19.15;62.59
74178;DHT22;62540;48.456;-4.456;2023-05-07T09:26:41;19.08;62.66
74178;DHT22;62540;48.456;-4.456;2023-05-07T09:29:07;19.09;62.46
74178;DHT22;62540;48.456;-4.456;2023-05-07T09:31:36;19.20;63.71
74178;DHT22;62540;48.456;-4.456;2023-05-07T09:34:04;19.29;63.75
74178;DHT22;62540;48.456;-4.456;2023-05-07T09:36:31;19.36;62.47
74178;DHT22;62540;48.456;-4.456;2023-05-07T09:38:59;19.43;62.89
74178;DHT22;62540;48.456;-4.456;2023-05-07T09:41:26;19.43;62.77
74178;DHT22;62540;48.456;-4.456;2023-05-07T09:43:55;19.39;61.88
74178;DHT22;62540;48.456;-4.456;2023-05-07T09:46:28;19.40;63.34
74178;DHT22;62540;48.456;-4.456;2023-05-07T09:48:57;19.40;63.22
74178;DHT22;62540;48.456;-4.456;2023-05-07T09:51:35;19.43;62.91
74178;DHT22;62540;48.456;-4.456;2023-05-07T09:54:04;19.46;63.09
74178;DHT22;62540;48.456;-4.456;2023-05-07T09:56:30;19.49;63.34
74178;DHT22;62540;48.456;-4.456;2023-05-07T09:58:59;19.54;62.89
74178;DHT22;62540;48.456;-4.456;2023-05-07T10:01:27;19.60;63.30
74178;DHT22;62540;48.456;-4.456;2023-05-07T10:03:53;19.63;63.25
74178;DHT22;62540;48.456;-4.456;2023-05-07T10:06:20;19.70;63.17
74178;DHT22;62540;48.456;-4.456;2023-05-07T10:08:45;19.80;62.86
74178;DHT22;62540;48.456;-4.456;2023-05-07T10:11:12;19.98;61.74
74178;DHT22;62540;48.456;-4.456;2023-05-07T10:13:37;20.11;61.34
74178;DHT22;62540;48.456;-4.456;2023-05-07T10:16:06;20.33;61.49
74178;DHT22;62540;48.456;-4.456;2023-05-07T10:18:32;20.63;61.15
74178;DHT22;62540;48.456;-4.456;2023-05-07T10:21:07;20.83;60.75
74178;DHT22;62540;48.456;-4.456;2023-05-07T10:23:33;20.99;58.55
74178;DHT22;62540;48.456;-4.456;2023-05-07T10:26:02;21.12;58.90
74178;DHT22;62540;48.456;-4.456;2023-05-07T10:28:30;21.18;57.15
74178;DHT22;62540;48.456;-4.456;2023-05-07T10:33:42;21.15;58.37
74178;DHT22;62540;48.456;-4.456;2023-05-07T10:36:09;21.18;59.36
74178;DHT22;62540;48.456;-4.456;2023-05-07T10:38:34;21.18;58.70
74178;DHT22;62540;48.456;-4.456;2023-05-07T10:41:01;21.18;57.56
74178;DHT22;62540;48.456;-4.456;2023-05-07T10:43:41;21.17;58.39
74178;DHT22;62540;48.456;-4.456;2023-05-07T10:46:20;21.14;58.48
74178;DHT22;62540;48.456;-4.456;2023-05-07T10:51:28;20.91;58.04
74178;DHT22;62540;48.456;-4.456;2023-05-07T10:56:41;20.97;58.28
74178;DHT22;62540;48.456;-4.456;2023-05-07T10:59:30;21.03;58.91
74178;DHT22;62540;48.456;-4.456;2023-05-07T11:02:00;21.10;58.21
74178;DHT22;62540;48.456;-4.456;2023-05-07T11:04:31;21.14;58.02
74178;DHT22;62540;48.456;-4.456;2023-05-07T11:15:10;21.68;57.56
74178;DHT22;62540;48.456;-4.456;2023-05-07T11:17:55;21.63;57.16
74178;DHT22;62540;48.456;-4.456;2023-05-07T11:20:22;21.63;57.81
74178;DHT22;62540;48.456;-4.456;2023-05-07T11:23:10;21.51;56.64
74178;DHT22;62540;48.456;-4.456;2023-05-07T11:26:07;21.48;57.75
74178;DHT22;62540;48.456;-4.456;2023-05-07T11:28:41;21.42;57.57
74178;DHT22;62540;48.456;-4.456;2023-05-07T11:31:07;21.47;57.78
74178;DHT22;62540;48.456;-4.456;2023-05-07T11:33:34;21.62;58.16
74178;DHT22;62540;48.456;-4.456;2023-05-07T11:36:01;21.76;56.64
74178;DHT22;62540;48.456;-4.456;2023-05-07T11:38:30;21.81;56.78
74178;DHT22;62540;48.456;-4.456;2023-05-07T11:40:59;21.93;56.97
74178;DHT22;62540;48.456;-4.456;2023-05-07T11:43:29;21.93;54.85
74178;DHT22;62540;48.456;-4.456;2023-05-07T11:46:05;22.02;56.70
74178;DHT22;62540;48.456;-4.456;2023-05-07T11:48:30;22.17;55.97
74178;DHT22;62540;48.456;-4.456;2023-05-07T11:51:04;22.32;56.11
74178;DHT22;62540;48.456;-4.456;2023-05-07T11:53:40;22.44;56.04
74178;DHT22;62540;48.456;-4.456;2023-05-07T11:56:13;22.55;55.91
74178;DHT22;62540;48.456;-4.456;2023-05-07T11:58:40;22.58;54.78
74178;DHT22;62540;48.456;-4.456;2023-05-07T12:01:08;22.58;55.18
74178;DHT22;62540;48.456;-4.456;2023-05-07T12:03:35;22.60;55.79
74178;DHT22;62540;48.456;-4.456;2023-05-07T12:06:02;22.54;55.42
74178;DHT22;62540;48.456;-4.456;2023-05-07T12:08:28;22.54;55.24
74178;DHT22;62540;48.456;-4.456;2023-05-07T12:10:53;22.45;55.45
74178;DHT22;62540;48.456;-4.456;2023-05-07T12:13:21;22.39;55.82
74178;DHT22;62540;48.456;-4.456;2023-05-07T12:15:47;22.39;56.13
74178;DHT22;62540;48.456;-4.456;2023-05-07T12:18:15;22.34;56.27
74178;DHT22;62540;48.456;-4.456;2023-05-07T12:20:41;22.24;56.29
74178;DHT22;62540;48.456;-4.456;2023-05-07T12:23:06;22.16;56.71
74178;DHT22;62540;48.456;-4.456;2023-05-07T12:25:34;22.10;56.76
74178;DHT22;62540;48.456;-4.456;2023-05-07T12:28:01;22.10;56.92
74178;DHT22;62540;48.456;-4.456;2023-05-07T12:30:27;22.07;57.16
74178;DHT22;62540;48.456;-4.456;2023-05-07T12:32:54;22.03;56.88
74178;DHT22;62540;48.456;-4.456;2023-05-07T12:35:33;21.99;57.24
74178;DHT22;62540;48.456;-4.456;2023-05-07T12:38:01;21.95;57.42
74178;DHT22;62540;48.456;-4.456;2023-05-07T12:40:43;21.90;57.63
74178;DHT22;62540;48.456;-4.456;2023-05-07T12:43:19;21.82;58.05
74178;DHT22;62540;48.456;-4.456;2023-05-07T12:45:46;21.74;58.62
74178;DHT22;62540;48.456;-4.456;2023-05-07T12:48:12;21.65;58.72
74178;DHT22;62540;48.456;-4.456;2023-05-07T12:50:38;21.47;58.50
74178;DHT22;62540;48.456;-4.456;2023-05-07T12:53:04;21.31;58.99
74178;DHT22;62540;48.456;-4.456;2023-05-07T12:55:31;21.17;59.32
74178;DHT22;62540;48.456;-4.456;2023-05-07T12:58:00;21.07;59.53
74178;DHT22;62540;48.456;-4.456;2023-05-07T13:00:52;20.99;59.75
74178;DHT22;62540;48.456;-4.456;2023-05-07T13:05:48;20.84;60.58
74178;DHT22;62540;48.456;-4.456;2023-05-07T13:10:51;20.66;60.64
74178;DHT22;62540;48.456;-4.456;2023-05-07T13:13:16;20.57;60.66
74178;DHT22;62540;48.456;-4.456;2023-05-07T13:15:42;20.51;61.32
74178;DHT22;62540;48.456;-4.456;2023-05-07T13:18:07;20.45;61.90
74178;DHT22;62540;48.456;-4.456;2023-05-07T13:20:32;20.39;61.96
74178;DHT22;62540;48.456;-4.456;2023-05-07T13:22:58;20.41;62.40
74178;DHT22;62540;48.456;-4.456;2023-05-07T13:25:26;20.45;62.32
74178;DHT22;62540;48.456;-4.456;2023-05-07T13:27:51;20.43;62.62
74178;DHT22;62540;48.456;-4.456;2023-05-07T13:30:17;20.42;62.82
74178;DHT22;62540;48.456;-4.456;2023-05-07T13:32:42;20.36;63.19
74178;DHT22;62540;48.456;-4.456;2023-05-07T13:35:07;20.28;63.20
74178;DHT22;62540;48.456;-4.456;2023-05-07T13:37:33;20.35;63.57
74178;DHT22;62540;48.456;-4.456;2023-05-07T13:39:58;20.41;63.13
74178;DHT22;62540;48.456;-4.456;2023-05-07T13:42:26;20.46;63.07
74178;DHT22;62540;48.456;-4.456;2023-05-07T13:44:51;20.56;62.96
74178;DHT22;62540;48.456;-4.456;2023-05-07T13:47:16;20.63;62.22
74178;DHT22;62540;48.456;-4.456;2023-05-07T13:49:42;20.70;62.64
74178;DHT22;62540;48.456;-4.456;2023-05-07T13:52:07;20.81;62.43
74178;DHT22;62540;48.456;-4.456;2023-05-07T13:54:33;20.89;62.32
74178;DHT22;62540;48.456;-4.456;2023-05-07T13:56:58;20.90;61.90
74178;DHT22;62540;48.456;-4.456;2023-05-07T13:59:23;20.90;61.57
74178;DHT22;62540;48.456;-4.456;2023-05-07T14:01:49;20.86;62.06
74178;DHT22;62540;48.456;-4.456;2023-05-07T14:04:14;20.90;61.13
74178;DHT22;62540;48.456;-4.456;2023-05-07T14:06:40;20.84;61.36
74178;DHT22;62540;48.456;-4.456;2023-05-07T14:09:05;20.80;61.67
74178;DHT22;62540;48.456;-4.456;2023-05-07T14:11:30;20.77;61.91
74178;DHT22;62540;48.456;-4.456;2023-05-07T14:13:56;20.75;62.20
74178;DHT22;62540;48.456;-4.456;2023-05-07T14:16:23;20.77;61.93
74178;DHT22;62540;48.456;-4.456;2023-05-07T14:18:48;20.76;61.75
74178;DHT22;62540;48.456;-4.456;2023-05-07T14:21:14;20.75;61.75
74178;DHT22;62540;48.456;-4.456;2023-05-07T14:23:39;20.75;61.99
74178;DHT22;62540;48.456;-4.456;2023-05-07T14:26:05;20.76;62.11
74178;DHT22;62540;48.456;-4.456;2023-05-07T14:28:30;20.70;61.92
74178;DHT22;62540;48.456;-4.456;2023-05-07T14:30:56;20.68;62.02
74178;DHT22;62540;48.456;-4.456;2023-05-07T14:33:21;20.66;62.04
74178;DHT22;62540;48.456;-4.456;2023-05-07T14:35:47;20.65;62.05
74178;DHT22;62540;48.456;-4.456;2023-05-07T14:38:14;20.66;62.28
74178;DHT22;62540;48.456;-4.456;2023-05-07T14:40:40;20.68;62.59
74178;DHT22;62540;48.456;-4.456;2023-05-07T14:43:06;20.73;62.30
74178;DHT22;62540;48.456;-4.456;2023-05-07T14:45:31;20.80;62.28
74178;DHT22;62540;48.456;-4.456;2023-05-07T14:47:56;20.89;61.64
74178;DHT22;62540;48.456;-4.456;2023-05-07T14:50:22;20.93;61.73
74178;DHT22;62540;48.456;-4.456;2023-05-07T14:52:47;21.04;61.63
74178;DHT22;62540;48.456;-4.456;2023-05-07T14:55:13;21.11;61.65
74178;DHT22;62540;48.456;-4.456;2023-05-07T14:57:38;21.12;60.94
74178;DHT22;62540;48.456;-4.456;2023-05-07T15:00:04;21.08;60.88
74178;DHT22;62540;48.456;-4.456;2023-05-07T15:02:30;21.01;60.93
74178;DHT22;62540;48.456;-4.456;2023-05-07T15:04:55;21.01;61.20
74178;DHT22;62540;48.456;-4.456;2023-05-07T15:07:20;21.01;60.91
74178;DHT22;62540;48.456;-4.456;2023-05-07T15:09:46;21.06;61.18
74178;DHT22;62540;48.456;-4.456;2023-05-07T15:12:13;21.12;61.13
74178;DHT22;62540;48.456;-4.456;2023-05-07T15:14:39;21.24;60.77
74178;DHT22;62540;48.456;-4.456;2023-05-07T15:17:04;21.27;60.79
74178;DHT22;62540;48.456;-4.456;2023-05-07T15:19:29;21.26;60.22
74178;DHT22;62540;48.456;-4.456;2023-05-07T15:21:57;21.17;60.13
74178;DHT22;62540;48.456;-4.456;2023-05-07T15:24:23;21.04;60.01
74178;DHT22;62540;48.456;-4.456;2023-05-07T15:26:48;20.96;60.71
74178;DHT22;62540;48.456;-4.456;2023-05-07T15:29:14;20.93;60.87
74178;DHT22;62540;48.456;-4.456;2023-05-07T15:31:39;20.91;60.93
74178;DHT22;62540;48.456;-4.456;2023-05-07T15:34:05;20.90;60.97